createdAt,value
2017-10-01T00:01:52.721Z,72.40
2017-10-01T00:04:20.201Z,72.40
2017-10-01T00:06:48.076Z,72.30
2017-10-01T00:09:15.537Z,72.00
2017-10-01T00:11:43.471Z,71.90
2017-10-01T00:14:12.204Z,71.50
2017-10-01T00:16:39.902Z,71.50
2017-10-01T00:19:08.124Z,71.30
2017-10-01T00:21:35.609Z,71.20
2017-10-01T00:24:03.893Z,71.30
2017-10-01T00:26:31.920Z,71.30
2017-10-01T00:29:00.229Z,71.60
2017-10-01T00:31:28.156Z,71.50
2017-10-01T00:33:55.628Z,71.60
2017-10-01T00:36:23.280Z,71.50
2017-10-01T00:38:51.386Z,71.40
2017-10-01T00:41:19.681Z,71.40
2017-10-01T00:43:47.822Z,71.40
2017-10-01T00:46:15.827Z,71.20
2017-10-01T00:48:43.699Z,71.30
2017-10-01T00:51:11.147Z,71.60
2017-10-01T00:53:38.672Z,71.30
2017-10-01T00:56:07.445Z,71.50
2017-10-01T00:58:36.177Z,71.50
2017-10-01T01:01:04.631Z,71.60
2017-10-01T01:03:33.453Z,72.00
2017-10-01T01:06:01.895Z,72.40
2017-10-01T01:08:29.465Z,72.40
2017-10-01T01:10:57.725Z,73.40
2017-10-01T01:13:26.392Z,73.40
2017-10-01T01:15:55.578Z,73.50
2017-10-01T01:18:23.877Z,73.60
2017-10-01T01:20:51.400Z,73.60
2017-10-01T01:23:18.957Z,73.80
2017-10-01T01:25:47.609Z,73.90
2017-10-01T01:28:15.104Z,74.20
2017-10-01T01:30:42.573Z,74.30
2017-10-01T01:33:11.368Z,74.60
2017-10-01T01:35:38.845Z,74.50
2017-10-01T01:38:06.360Z,74.70
2017-10-01T01:40:34.253Z,74.70
2017-10-01T01:43:01.729Z,74.80
2017-10-01T01:45:29.654Z,74.90
2017-10-01T01:47:57.643Z,74.90
2017-10-01T01:50:26.527Z,75.10
2017-10-01T01:52:55.241Z,75.00
2017-10-01T01:55:23.340Z,75.00
2017-10-01T01:57:51.117Z,75.00
2017-10-01T02:00:19.064Z,75.70
2017-10-01T02:02:47.032Z,75.00
2017-10-01T02:05:14.492Z,75.20
2017-10-01T02:07:42.083Z,75.20
2017-10-01T02:10:10.401Z,75.30
2017-10-01T02:12:38.293Z,75.20
2017-10-01T02:15:06.571Z,76.10
2017-10-01T02:17:35.301Z,75.50
2017-10-01T02:20:02.893Z,75.50
2017-10-01T02:22:30.647Z,75.70
2017-10-01T02:24:58.144Z,76.00
2017-10-01T02:27:26.904Z,76.00
2017-10-01T02:29:54.465Z,76.00
2017-10-01T02:32:21.965Z,76.00
2017-10-01T02:34:49.719Z,76.00
2017-10-01T02:37:17.172Z,76.00
2017-10-01T02:39:44.630Z,75.60
2017-10-01T02:42:12.619Z,75.80
2017-10-01T02:44:41.442Z,75.70
2017-10-01T02:47:09.229Z,75.70
2017-10-01T02:49:37.996Z,75.50
2017-10-01T02:52:05.463Z,75.40
2017-10-01T02:54:35.081Z,75.60
2017-10-01T02:57:02.997Z,75.30
2017-10-01T02:59:30.979Z,75.20
2017-10-01T03:01:59.721Z,75.10
2017-10-01T03:04:27.987Z,75.10
2017-10-01T03:06:56.029Z,75.20
2017-10-01T03:09:24.856Z,74.90
2017-10-01T03:11:52.975Z,74.90
2017-10-01T03:14:21.235Z,75.30
2017-10-01T03:16:49.069Z,75.10
2017-10-01T03:19:17.307Z,75.50
2017-10-01T03:21:44.863Z,75.30
2017-10-01T03:24:12.654Z,75.20
2017-10-01T03:26:40.672Z,75.00
2017-10-01T03:29:08.907Z,75.00
2017-10-01T03:31:36.458Z,75.10
2017-10-01T03:34:03.997Z,74.90
2017-10-01T03:36:31.852Z,74.90
2017-10-01T03:38:59.364Z,75.00
2017-10-01T03:41:26.850Z,74.70
2017-10-01T03:43:55.463Z,74.70
2017-10-01T03:46:23.006Z,74.70
2017-10-01T03:48:51.058Z,74.80
2017-10-01T03:51:18.768Z,74.90
2017-10-01T03:53:47.041Z,75.10
2017-10-01T03:56:14.969Z,75.10
2017-10-01T03:58:43.739Z,75.00
2017-10-01T04:01:12.407Z,74.80
2017-10-01T04:03:41.067Z,74.90
2017-10-01T04:06:08.676Z,74.90
2017-10-01T04:08:36.166Z,74.60
2017-10-01T04:11:04.949Z,74.50
2017-10-01T04:13:32.816Z,74.40
2017-10-01T04:16:00.311Z,74.40
2017-10-01T04:18:27.961Z,74.30
2017-10-01T04:20:55.826Z,73.90
2017-10-01T04:23:24.063Z,73.50
2017-10-01T04:25:52.033Z,73.50
2017-10-01T04:28:20.286Z,73.90
2017-10-01T04:30:47.734Z,73.90
2017-10-01T04:33:16.515Z,73.80
2017-10-01T04:35:44.744Z,73.20
2017-10-01T04:38:13.752Z,73.40
2017-10-01T04:40:41.978Z,73.80
2017-10-01T04:43:10.232Z,74.10
2017-10-01T04:45:38.211Z,73.70
2017-10-01T04:48:05.952Z,73.40
2017-10-01T04:50:33.728Z,73.30
2017-10-01T04:53:02.593Z,72.80
2017-10-01T04:55:31.342Z,72.90
2017-10-01T04:57:59.271Z,72.90
2017-10-01T05:00:27.156Z,72.10
2017-10-01T05:02:55.114Z,72.50
2017-10-01T05:05:23.097Z,72.80
2017-10-01T05:07:50.580Z,72.70
2017-10-01T05:10:18.108Z,72.90
2017-10-01T05:12:46.763Z,72.50
2017-10-01T05:15:14.391Z,72.60
2017-10-01T05:17:41.867Z,72.20
2017-10-01T05:20:09.860Z,72.10
2017-10-01T05:22:38.080Z,72.40
2017-10-01T05:25:06.063Z,72.40
2017-10-01T05:27:33.852Z,71.90
2017-10-01T05:30:01.624Z,72.00
2017-10-01T05:32:29.477Z,71.70
2017-10-01T05:34:56.941Z,72.20
2017-10-01T05:37:24.560Z,72.40
2017-10-01T05:39:52.102Z,72.40
2017-10-01T05:42:20.025Z,72.30
2017-10-01T05:44:47.908Z,72.20
2017-10-01T05:47:15.691Z,72.10
2017-10-01T05:49:43.656Z,72.10
2017-10-01T05:52:12.221Z,71.70
2017-10-01T05:54:40.455Z,71.50
2017-10-01T05:57:08.416Z,71.50
2017-10-01T05:59:35.866Z,71.50
2017-10-01T06:02:03.741Z,71.80
2017-10-01T06:04:31.220Z,71.90
2017-10-01T06:06:58.867Z,72.20
2017-10-01T06:09:26.330Z,72.30
2017-10-01T06:11:54.359Z,72.20
2017-10-01T06:14:21.858Z,72.00
2017-10-01T06:16:50.183Z,71.90
2017-10-01T06:19:17.714Z,71.90
2017-10-01T06:21:45.598Z,71.70
2017-10-01T06:24:14.126Z,71.30
2017-10-01T06:26:42.089Z,71.00
2017-10-01T06:29:09.538Z,71.50
2017-10-01T06:31:37.040Z,70.80
2017-10-01T06:34:05.074Z,71.00
2017-10-01T06:36:32.808Z,70.50
2017-10-01T06:39:02.010Z,70.80
2017-10-01T06:41:29.487Z,70.80
2017-10-01T06:43:57.374Z,70.50
2017-10-01T06:46:25.699Z,71.30
2017-10-01T06:48:53.687Z,70.80
2017-10-01T06:51:21.640Z,71.10
2017-10-01T06:53:49.154Z,71.00
2017-10-01T06:56:16.855Z,70.70
2017-10-01T06:58:45.484Z,71.10
2017-10-01T07:01:13.353Z,71.00
2017-10-01T07:03:42.012Z,70.70
2017-10-01T07:06:09.484Z,70.50
2017-10-01T07:08:37.939Z,70.90
2017-10-01T07:11:06.169Z,71.10
2017-10-01T07:13:34.052Z,71.00
2017-10-01T07:16:02.277Z,72.00
2017-10-01T07:18:30.537Z,71.50
2017-10-01T07:20:58.407Z,71.50
2017-10-01T07:23:26.625Z,71.60
2017-10-01T07:25:54.729Z,71.60
2017-10-01T07:28:23.765Z,71.80
2017-10-01T07:30:51.252Z,71.80
2017-10-01T07:33:19.529Z,72.20
2017-10-01T07:35:47.142Z,72.20
2017-10-01T07:38:14.606Z,71.90
2017-10-01T07:40:42.858Z,71.90
2017-10-01T07:43:11.322Z,72.30
2017-10-01T07:45:40.196Z,71.70
2017-10-01T07:48:08.881Z,72.00
2017-10-01T07:50:37.113Z,71.40
2017-10-01T07:53:04.889Z,71.30
2017-10-01T07:55:33.009Z,72.30
2017-10-01T07:58:00.775Z,71.60
2017-10-01T08:00:29.033Z,71.50
2017-10-01T08:02:58.469Z,71.60
2017-10-01T08:05:26.428Z,71.40
2017-10-01T08:07:53.975Z,71.20
2017-10-01T08:10:21.519Z,72.00
2017-10-01T08:12:49.364Z,72.40
2017-10-01T08:15:17.028Z,72.50
2017-10-01T08:17:45.098Z,72.50
2017-10-01T08:20:12.710Z,72.70
2017-10-01T08:22:40.445Z,73.00
2017-10-01T08:25:08.311Z,72.90
2017-10-01T08:27:36.364Z,71.90
2017-10-01T08:30:03.881Z,71.30
2017-10-01T08:32:32.092Z,71.40
2017-10-01T08:34:59.613Z,71.40
2017-10-01T08:37:27.250Z,70.40
2017-10-01T08:39:54.833Z,70.80
2017-10-01T08:42:22.682Z,70.80
2017-10-01T08:44:50.894Z,69.40
2017-10-01T08:47:19.553Z,69.30
2017-10-01T08:49:47.021Z,69.10
2017-10-01T08:52:14.901Z,67.80
2017-10-01T08:54:42.413Z,67.40
2017-10-01T08:57:10.313Z,68.10
2017-10-01T08:59:38.534Z,67.80
2017-10-01T09:02:06.408Z,67.80
2017-10-01T09:04:34.653Z,66.30
2017-10-01T09:07:02.097Z,66.30
2017-10-01T09:09:30.359Z,66.40
2017-10-01T09:11:59.141Z,67.10
2017-10-01T09:14:26.643Z,67.30
2017-10-01T09:16:54.098Z,67.60
2017-10-01T09:19:22.579Z,66.20
2017-10-01T09:21:50.194Z,66.20
2017-10-01T09:24:17.658Z,65.50
2017-10-01T09:26:45.527Z,65.00
2017-10-01T09:29:12.988Z,65.40
2017-10-01T09:31:41.490Z,64.00
2017-10-01T09:34:09.319Z,64.00
2017-10-01T09:36:36.944Z,64.00
2017-10-01T09:39:05.180Z,62.00
2017-10-01T09:41:33.792Z,61.70
2017-10-01T09:44:01.757Z,61.70
2017-10-01T09:46:29.206Z,60.30
2017-10-01T09:48:57.241Z,60.50
2017-10-01T09:51:24.672Z,61.90
2017-10-01T09:53:52.558Z,62.10
2017-10-01T09:56:20.568Z,62.90
2017-10-01T09:58:49.150Z,62.40
2017-10-01T10:01:16.621Z,62.40
2017-10-01T10:03:44.715Z,60.80
2017-10-01T10:06:12.729Z,59.80
2017-10-01T10:08:40.170Z,60.40
2017-10-01T10:11:07.971Z,60.60
2017-10-01T10:13:36.434Z,60.10
2017-10-01T10:16:04.695Z,58.90
2017-10-01T10:18:32.924Z,59.10
2017-10-01T10:21:00.993Z,59.10
2017-10-01T10:23:28.666Z,59.90
2017-10-01T10:25:57.011Z,60.00
2017-10-01T10:28:24.502Z,59.60
2017-10-01T10:30:52.015Z,59.40
2017-10-01T10:33:19.596Z,58.10
2017-10-01T10:35:47.083Z,57.10
2017-10-01T10:38:15.344Z,58.40
2017-10-01T10:40:43.586Z,57.20
2017-10-01T10:43:11.147Z,57.20
2017-10-01T10:45:40.024Z,57.80
2017-10-01T10:48:09.551Z,56.70
2017-10-01T10:50:37.021Z,56.70
2017-10-01T10:53:05.860Z,56.90
2017-10-01T10:55:33.623Z,56.00
2017-10-01T10:58:01.567Z,53.80
2017-10-01T11:00:29.019Z,52.50
2017-10-01T11:02:57.060Z,53.90
2017-10-01T11:05:24.611Z,55.50
2017-10-01T11:07:52.574Z,53.10
2017-10-01T11:10:20.088Z,54.60
2017-10-01T11:12:47.553Z,53.50
2017-10-01T11:15:15.009Z,53.10
2017-10-01T11:17:42.502Z,53.90
2017-10-01T11:20:09.984Z,52.00
2017-10-01T11:22:38.504Z,52.30
2017-10-01T11:25:05.942Z,52.20
2017-10-01T11:27:34.652Z,51.30
2017-10-01T11:30:02.289Z,51.30
2017-10-01T11:32:29.751Z,52.20
2017-10-01T11:34:57.352Z,49.00
2017-10-01T11:37:25.538Z,51.30
2017-10-01T11:39:52.994Z,50.90
2017-10-01T11:42:20.630Z,48.20
2017-10-01T11:44:48.775Z,48.50
2017-10-01T11:47:16.914Z,50.20
2017-10-01T11:49:44.643Z,49.10
2017-10-01T11:52:13.321Z,50.60
2017-10-01T11:54:41.848Z,50.50
2017-10-01T11:57:09.829Z,50.50
2017-10-01T11:59:38.422Z,48.60
2017-10-01T12:02:06.434Z,48.60
2017-10-01T12:04:33.945Z,48.70
2017-10-01T12:07:01.408Z,45.40
2017-10-01T12:09:29.057Z,48.50
2017-10-01T12:11:56.509Z,48.10
2017-10-01T12:14:23.957Z,45.60
2017-10-01T12:16:52.407Z,46.80
2017-10-01T12:19:20.018Z,46.80
2017-10-01T12:21:47.478Z,47.30
2017-10-01T12:24:15.006Z,48.00
2017-10-01T12:26:43.665Z,45.40
2017-10-01T12:29:11.129Z,45.80
2017-10-01T12:31:39.372Z,46.20
2017-10-01T12:34:06.842Z,46.90
2017-10-01T12:36:34.828Z,47.10
2017-10-01T12:39:03.053Z,46.70
2017-10-01T12:41:30.506Z,46.60
2017-10-01T12:43:58.414Z,47.90
2017-10-01T12:46:26.277Z,47.50
2017-10-01T12:48:54.797Z,48.90
2017-10-01T12:51:23.460Z,47.20
2017-10-01T12:53:52.057Z,46.30
2017-10-01T12:56:19.876Z,46.20
2017-10-01T12:58:48.750Z,46.70
2017-10-01T13:01:22.935Z,48.60
2017-10-01T13:03:50.740Z,48.60
2017-10-01T13:06:18.420Z,45.90
2017-10-01T13:08:46.028Z,45.90
2017-10-01T13:11:13.613Z,47.30
2017-10-01T13:13:41.072Z,46.60
2017-10-01T13:16:09.603Z,44.60
2017-10-01T13:18:37.062Z,44.60
2017-10-01T13:21:06.154Z,43.70
2017-10-01T13:23:34.708Z,41.80
2017-10-01T13:26:02.649Z,41.70
2017-10-01T13:28:30.111Z,43.50
2017-10-01T13:30:57.608Z,43.40
2017-10-01T13:33:25.093Z,42.50
2017-10-01T13:35:53.045Z,41.20
2017-10-01T13:38:20.485Z,43.30
2017-10-01T13:40:48.433Z,41.70
2017-10-01T13:43:16.999Z,41.50
2017-10-01T13:45:44.482Z,40.80
2017-10-01T13:48:12.405Z,39.60
2017-10-01T13:50:41.125Z,40.60
2017-10-01T13:53:08.577Z,40.10
2017-10-01T13:55:36.694Z,42.70
2017-10-01T13:58:04.724Z,41.30
2017-10-01T14:00:32.234Z,39.90
2017-10-01T14:03:00.054Z,40.00
2017-10-01T14:05:33.327Z,39.40
2017-10-01T14:08:00.802Z,39.10
2017-10-01T14:10:28.311Z,39.90
2017-10-01T14:12:55.775Z,40.10
2017-10-01T14:15:23.236Z,37.80
2017-10-01T14:17:51.524Z,37.20
2017-10-01T14:20:19.837Z,38.00
2017-10-01T14:22:47.704Z,37.90
2017-10-01T14:25:15.160Z,39.10
2017-10-01T14:27:42.928Z,36.50
2017-10-01T14:30:11.139Z,37.30
2017-10-01T14:32:38.628Z,37.30
2017-10-01T14:35:07.497Z,39.10
2017-10-01T14:37:36.014Z,38.50
2017-10-01T14:40:03.509Z,38.40
2017-10-01T14:42:31.817Z,39.30
2017-10-01T14:44:59.767Z,39.30
2017-10-01T14:47:27.595Z,40.10
2017-10-01T14:49:55.063Z,40.90
2017-10-01T14:52:22.617Z,40.00
2017-10-01T14:54:51.474Z,41.50
2017-10-01T14:57:19.512Z,42.00
2017-10-01T14:59:47.015Z,43.00
2017-10-01T15:02:16.523Z,42.00
2017-10-01T15:04:44.718Z,42.50
2017-10-01T15:07:12.186Z,42.50
2017-10-01T15:09:39.705Z,42.90
2017-10-01T15:12:07.663Z,42.00
2017-10-01T15:14:35.106Z,41.70
2017-10-01T15:17:02.583Z,41.00
2017-10-01T15:19:30.123Z,42.20
2017-10-01T15:21:57.764Z,41.70
2017-10-01T15:24:25.212Z,43.10
2017-10-01T15:26:53.161Z,43.90
2017-10-01T15:29:21.937Z,44.20
2017-10-01T15:31:49.737Z,44.20
2017-10-01T15:34:17.591Z,43.90
2017-10-01T15:36:45.528Z,44.40
2017-10-01T15:39:13.090Z,44.80
2017-10-01T15:41:40.588Z,44.90
2017-10-01T15:44:09.378Z,45.70
2017-10-01T15:46:36.842Z,45.70
2017-10-01T15:49:04.747Z,45.70
2017-10-01T15:51:33.566Z,46.10
2017-10-01T15:54:01.110Z,46.00
2017-10-01T15:56:29.643Z,45.80
2017-10-01T15:58:57.583Z,45.90
2017-10-01T16:01:27.066Z,46.20
2017-10-01T16:03:55.285Z,46.20
2017-10-01T16:06:23.826Z,46.20
2017-10-01T16:08:51.735Z,47.00
2017-10-01T16:11:20.162Z,47.80
2017-10-01T16:13:47.626Z,47.80
2017-10-01T16:16:15.099Z,47.20
2017-10-01T16:18:43.442Z,47.60
2017-10-01T16:21:10.891Z,47.40
2017-10-01T16:23:38.543Z,47.80
2017-10-01T16:26:07.464Z,48.80
2017-10-01T16:28:35.577Z,48.20
2017-10-01T16:31:03.781Z,48.90
2017-10-01T16:33:31.302Z,48.90
2017-10-01T16:35:59.416Z,49.20
2017-10-01T16:38:26.864Z,49.60
2017-10-01T16:40:55.110Z,49.30
2017-10-01T16:43:23.275Z,49.10
2017-10-01T16:45:50.791Z,49.40
2017-10-01T16:48:18.902Z,49.90
2017-10-01T16:50:47.399Z,49.80
2017-10-01T16:53:15.227Z,49.80
2017-10-01T16:55:43.261Z,50.10
2017-10-01T16:58:11.874Z,50.40
2017-10-01T17:00:39.338Z,50.40
2017-10-01T17:03:07.161Z,50.70
2017-10-01T17:05:34.718Z,50.70
2017-10-01T17:08:02.201Z,51.00
2017-10-01T17:10:30.425Z,51.40
2017-10-01T17:12:58.957Z,51.40
2017-10-01T17:15:27.131Z,51.50
2017-10-01T17:17:54.615Z,51.40
2017-10-01T17:20:22.161Z,51.40
2017-10-01T17:22:49.908Z,52.20
2017-10-01T17:25:17.867Z,52.30
2017-10-01T17:27:46.688Z,52.40
2017-10-01T17:30:14.187Z,52.40
2017-10-01T17:32:42.505Z,52.60
2017-10-01T17:35:10.557Z,52.60
2017-10-01T17:37:38.479Z,53.10
2017-10-01T17:40:05.966Z,53.60
2017-10-01T17:42:33.424Z,53.30
2017-10-01T17:45:01.436Z,53.30
2017-10-01T17:47:29.491Z,53.00
2017-10-01T17:49:56.929Z,53.40
2017-10-01T17:52:24.741Z,53.10
2017-10-01T17:54:53.973Z,54.10
2017-10-01T17:57:21.811Z,54.10
2017-10-01T17:59:49.326Z,54.70
2017-10-01T18:02:17.224Z,54.90
2017-10-01T18:04:44.715Z,53.90
2017-10-01T18:07:12.292Z,54.20
2017-10-01T18:09:39.785Z,54.00
2017-10-01T18:12:08.112Z,53.90
2017-10-01T18:14:36.205Z,53.90
2017-10-01T18:17:04.429Z,54.50
2017-10-01T18:19:31.966Z,54.50
2017-10-01T18:21:59.497Z,54.30
2017-10-01T18:24:26.968Z,54.30
2017-10-01T18:26:55.658Z,54.30
2017-10-01T18:29:23.929Z,54.40
2017-10-01T18:31:52.487Z,54.40
2017-10-01T18:34:20.955Z,54.50
2017-10-01T18:36:49.590Z,54.70
2017-10-01T18:39:17.111Z,54.60
2017-10-01T18:41:44.827Z,54.50
2017-10-01T18:44:12.889Z,54.50
2017-10-01T18:46:40.509Z,54.60
2017-10-01T18:49:10.147Z,55.00
2017-10-01T18:51:37.636Z,55.00
2017-10-01T18:54:05.445Z,55.20
2017-10-01T18:56:33.391Z,54.90
2017-10-01T18:59:01.246Z,54.80
2017-10-01T19:01:31.197Z,55.10
2017-10-01T19:03:59.888Z,55.00
2017-10-01T19:06:27.356Z,55.60
2017-10-01T19:08:54.833Z,55.30
2017-10-01T19:11:23.166Z,56.00
2017-10-01T19:13:50.801Z,56.00
2017-10-01T19:16:18.499Z,55.60
2017-10-01T19:18:46.756Z,55.90
2017-10-01T19:21:15.033Z,56.20
2017-10-01T19:23:42.534Z,56.20
2017-10-01T19:26:10.316Z,56.20
2017-10-01T19:28:38.551Z,56.20
2017-10-01T19:31:07.283Z,56.10
2017-10-01T19:33:34.874Z,56.10
2017-10-01T19:36:03.487Z,55.70
2017-10-01T19:38:30.922Z,55.60
2017-10-01T19:40:58.394Z,56.10
2017-10-01T19:43:26.474Z,56.20
2017-10-01T19:45:54.799Z,57.20
2017-10-01T19:48:22.806Z,56.50
2017-10-01T19:50:51.357Z,56.90
2017-10-01T19:53:18.831Z,56.80
2017-10-01T19:55:46.869Z,56.90
2017-10-01T19:58:15.360Z,56.80
2017-10-01T20:00:42.840Z,56.80
2017-10-01T20:03:10.619Z,56.50
2017-10-01T20:05:38.988Z,57.10
2017-10-01T20:08:07.425Z,57.30
2017-10-01T20:10:36.377Z,57.60
2017-10-01T20:13:03.902Z,57.50
2017-10-01T20:15:31.354Z,57.30
2017-10-01T20:17:58.907Z,57.30
2017-10-01T20:20:26.373Z,57.20
2017-10-01T20:22:54.151Z,57.50
2017-10-01T20:25:22.452Z,57.50
2017-10-01T20:27:50.316Z,57.50
2017-10-01T20:30:17.805Z,57.40
2017-10-01T20:32:46.414Z,57.60
2017-10-01T20:35:14.372Z,57.60
2017-10-01T20:37:41.906Z,57.70
2017-10-01T20:40:10.071Z,57.50
2017-10-01T20:42:37.526Z,57.90
2017-10-01T20:45:05.396Z,57.60
2017-10-01T20:47:33.241Z,57.70
2017-10-01T20:50:00.707Z,58.00
2017-10-01T20:52:28.946Z,57.60
2017-10-01T20:54:57.781Z,57.50
2017-10-01T20:57:25.720Z,57.70
2017-10-01T20:59:53.210Z,58.20
2017-10-01T21:02:21.129Z,58.20
2017-10-01T21:04:48.613Z,58.10
2017-10-01T21:07:16.860Z,58.30
2017-10-01T21:09:44.758Z,57.70
2017-10-01T21:12:12.225Z,57.60
2017-10-01T21:14:39.693Z,57.80
2017-10-01T21:17:08.658Z,57.90
2017-10-01T21:19:36.149Z,57.80
2017-10-01T21:22:03.625Z,58.10
2017-10-01T21:24:31.123Z,57.80
2017-10-01T21:26:59.984Z,57.90
2017-10-01T21:29:28.482Z,58.00
2017-10-01T21:31:56.396Z,57.50
2017-10-01T21:34:23.846Z,57.40
2017-10-01T21:36:52.614Z,57.20
2017-10-01T21:39:20.083Z,57.10
2017-10-01T21:41:47.562Z,57.00
2017-10-01T21:44:15.678Z,57.00
2017-10-01T21:46:45.155Z,56.80
2017-10-01T21:49:13.396Z,56.90
2017-10-01T21:51:40.854Z,56.90
2017-10-01T21:54:09.145Z,57.20
2017-10-01T21:56:36.840Z,57.20
2017-10-01T21:59:04.869Z,57.20
2017-10-01T22:01:32.951Z,56.50
2017-10-01T22:04:00.456Z,56.80
2017-10-01T22:06:28.279Z,57.20
2017-10-01T22:08:55.751Z,57.00
2017-10-01T22:11:23.604Z,57.20
2017-10-01T22:13:51.072Z,57.10
2017-10-01T22:16:19.283Z,57.60
2017-10-01T22:18:47.301Z,57.70
2017-10-01T22:21:15.514Z,57.90
2017-10-01T22:23:43.411Z,57.40
2017-10-01T22:26:11.968Z,58.00
2017-10-01T22:28:39.610Z,57.90
2017-10-01T22:31:07.466Z,58.20
2017-10-01T22:33:35.715Z,58.30
2017-10-01T22:36:03.595Z,58.10
2017-10-01T22:38:31.080Z,58.00
2017-10-01T22:40:58.552Z,57.80
2017-10-01T22:43:26.608Z,57.90
2017-10-01T22:45:54.071Z,58.10
2017-10-01T22:48:22.719Z,57.90
2017-10-01T22:50:50.978Z,57.30
2017-10-01T22:53:19.925Z,57.60
2017-10-01T22:55:47.790Z,57.50
2017-10-01T22:58:15.720Z,57.70
2017-10-01T23:00:43.191Z,57.70
2017-10-01T23:03:11.071Z,58.10
2017-10-01T23:05:39.327Z,57.80
2017-10-01T23:08:07.538Z,57.80
2017-10-01T23:10:35.340Z,57.70
2017-10-01T23:13:03.627Z,57.40
2017-10-01T23:15:31.181Z,57.40
2017-10-01T23:17:58.625Z,57.50
2017-10-01T23:20:26.717Z,57.50
2017-10-01T23:22:55.287Z,57.40
2017-10-01T23:25:22.817Z,57.50
2017-10-01T23:27:50.866Z,57.50
2017-10-01T23:30:18.340Z,57.50
2017-10-01T23:32:46.798Z,57.60
2017-10-01T23:35:15.522Z,57.40
2017-10-01T23:37:42.961Z,57.40
2017-10-01T23:40:10.442Z,57.50
2017-10-01T23:42:37.928Z,57.30
2017-10-01T23:45:05.872Z,57.30
2017-10-01T23:47:33.616Z,57.30
2017-10-01T23:50:01.189Z,57.10
2017-10-01T23:52:28.632Z,57.10
2017-10-01T23:54:56.578Z,57.40
2017-10-01T23:57:24.472Z,57.20
2017-10-01T23:59:52.732Z,57.10
